Time;durP1;ratioP1;P1;durP2;ratioP2;P2;SDS_P1;SDS_P2;PMS_P1;PMS_P2;Temp;Humidity;BMP_temperature;BMP_pressure;BME280_temperature;BME280_humidity;BME280_pressure;Samples;Min_cycle;Max_cycle;Signal;HPM_P1;HPM_P2
2022/04/29 00:01:56;;;;;;;31.83;12.33;;;;;;;-145.18;100.00;60484.78;5027780;28;20570;-70
2022/04/29 00:04:23;;;;;;;28.27;10.60;;;;;;;-145.18;100.00;60484.78;5027892;28;20116;-70
2022/04/29 00:06:49;;;;;;;26.13;10.10;;;;;;;-145.18;100.00;60484.78;5028618;28;20022;-70
2022/04/29 00:09:14;;;;;;;29.57;10.37;;;;;;;-145.18;100.00;60484.78;5022329;28;20087;-70
2022/04/29 00:11:39;;;;;;;25.77;10.60;;;;;;;-145.18;100.00;60484.78;5027110;28;20033;-70
2022/04/29 00:14:05;;;;;;;26.57;10.57;;;;;;;-145.18;100.00;60484.78;5027320;28;20108;-70
2022/04/29 00:16:30;;;;;;;27.23;10.43;;;;;;;-145.18;100.00;60484.78;5027251;28;20033;-70
2022/04/29 00:18:56;;;;;;;27.03;9.87;;;;;;;-145.18;100.00;60484.78;5029739;28;20025;-70
2022/04/29 00:21:22;;;;;;;25.57;9.77;;;;;;;-145.18;100.00;60484.78;5023571;28;20060;-70
2022/04/29 00:23:47;;;;;;;24.00;10.13;;;;;;;-145.18;100.00;60484.78;5027150;28;20044;-70
2022/04/29 00:26:13;;;;;;;28.33;10.23;;;;;;;-145.18;100.00;60484.78;5022562;28;20022;-70
2022/04/29 00:28:38;;;;;;;24.60;9.87;;;;;;;-145.18;100.00;60484.78;5028071;28;20059;-70
2022/04/29 00:31:04;;;;;;;27.90;9.63;;;;;;;-145.18;100.00;60484.78;5018507;28;20149;-70
2022/04/29 00:33:29;;;;;;;21.57;10.70;;;;;;;-145.18;100.00;60484.78;5013254;28;20107;-70
2022/04/29 00:35:54;;;;;;;25.67;9.90;;;;;;;-145.18;100.00;60484.78;5019537;28;20025;-70
2022/04/29 00:38:20;;;;;;;28.00;10.10;;;;;;;-145.18;100.00;60484.78;5024761;28;20029;-71
2022/04/29 00:40:45;;;;;;;24.97;10.67;;;;;;;-145.18;100.00;60484.78;5028354;28;20055;-70
2022/04/29 00:43:12;;;;;;;25.73;10.63;;;;;;;-145.18;100.00;60484.78;5027909;28;20155;-70
2022/04/29 00:45:38;;;;;;;31.60;12.03;;;;;;;-145.18;100.00;60484.78;5028163;28;20036;-70
2022/04/29 00:48:03;;;;;;;24.00;10.73;;;;;;;-145.18;100.00;60484.78;5027129;28;20029;-70
2022/04/29 00:50:30;;;;;;;27.50;12.77;;;;;;;-145.18;100.00;60484.78;5028399;28;20137;-70
2022/04/29 00:52:59;;;;;;;28.90;12.23;;;;;;;-145.18;100.00;60484.78;5029518;28;20060;-70
2022/04/29 00:55:24;;;;;;;37.80;13.30;;;;;;;-145.18;100.00;60484.78;5026621;28;20124;-70
2022/04/29 00:57:53;;;;;;;37.67;14.10;;;;;;;-145.18;100.00;60484.78;5028012;28;20155;-70
2022/04/29 01:00:19;;;;;;;30.20;13.67;;;;;;;-145.18;100.00;60484.78;5021091;28;20037;-70
2022/04/29 01:02:53;;;;;;;33.33;13.97;;;;;;;-145.18;100.00;60484.78;5028465;28;20107;-71
2022/04/29 01:05:21;;;;;;;35.67;14.97;;;;;;;-145.18;100.00;60484.78;5026647;28;20029;-71
2022/04/29 01:07:47;;;;;;;33.43;13.57;;;;;;;-145.18;100.00;60484.78;5029218;28;20033;-71
2022/04/29 01:10:14;;;;;;;28.57;12.83;;;;;;;-145.18;100.00;60484.78;5004995;28;20037;-71
2022/04/29 01:12:42;;;;;;;32.77;14.17;;;;;;;-145.18;100.00;60484.78;5027076;28;20087;-71
2022/04/29 01:15:10;;;;;;;34.40;14.47;;;;;;;-145.18;100.00;60484.78;5019485;28;20571;-71
2022/04/29 01:17:37;;;;;;;37.70;15.07;;;;;;;-145.18;100.00;60484.78;5026026;28;20029;-71
2022/04/29 01:20:12;;;;;;;33.77;14.90;;;;;;;-145.18;100.00;60484.78;5026881;28;20059;-71
2022/04/29 01:22:38;;;;;;;37.00;16.00;;;;;;;-145.18;100.00;60484.78;5026558;28;20021;-71
2022/04/29 01:25:04;;;;;;;32.47;16.00;;;;;;;-145.18;100.00;60484.78;5022799;28;20041;-71
2022/04/29 01:27:30;;;;;;;42.10;16.70;;;;;;;-145.18;100.00;60484.78;5028778;28;20766;-71
2022/04/29 01:30:18;;;;;;;37.13;16.80;;;;;;;-145.18;100.00;60484.78;5017245;28;20040;-71
2022/04/29 01:32:44;;;;;;;45.77;17.03;;;;;;;-145.18;100.00;60484.78;4964415;28;20050;-71
2022/04/29 01:35:11;;;;;;;43.47;17.33;;;;;;;-145.18;100.00;60484.78;4957124;28;20076;-71
2022/04/29 01:37:38;;;;;;;46.83;18.97;;;;;;;-145.18;100.00;60484.78;4963487;28;20041;-71
2022/04/29 01:40:05;;;;;;;41.87;18.90;;;;;;;-145.18;100.00;60484.78;4958829;28;20039;-71
2022/04/29 01:42:30;;;;;;;65.73;21.83;;;;;;;-145.18;100.00;60484.78;4965898;28;20042;-71
2022/04/29 01:44:56;;;;;;;48.90;19.57;;;;;;;-145.18;100.00;60484.78;4964697;28;20026;-71
2022/04/29 01:47:21;;;;;;;43.17;18.20;;;;;;;-145.18;100.00;60484.78;4964192;28;20042;-71
2022/04/29 01:49:47;;;;;;;44.80;19.17;;;;;;;-145.18;100.00;60484.78;4965312;28;20130;-71
2022/04/29 01:52:12;;;;;;;49.57;19.63;;;;;;;-145.18;100.00;60484.78;4966726;28;20577;-71
2022/04/29 01:54:38;;;;;;;54.50;20.10;;;;;;;-145.18;100.00;60484.78;4964474;28;20037;-71
2022/04/29 01:57:07;;;;;;;49.70;19.00;;;;;;;-145.18;100.00;60484.78;4957448;28;20489;-71
2022/04/29 01:59:33;;;;;;;47.77;19.50;;;;;;;-145.18;100.00;60484.78;4961291;28;20429;-71
2022/04/29 02:01:59;;;;;;;58.20;22.53;;;;;;;-145.18;100.00;60484.78;4967127;28;20158;-71
2022/04/29 02:04:25;;;;;;;67.67;24.37;;;;;;;-145.18;100.00;60484.78;5013181;28;20045;-71
2022/04/29 02:06:51;;;;;;;59.37;22.63;;;;;;;-145.18;100.00;60484.78;5025409;28;20081;-71
2022/04/29 02:09:16;;;;;;;53.43;22.40;;;;;;;-145.18;100.00;60484.78;5026126;28;20072;-71
2022/04/29 02:12:04;;;;;;;61.03;21.80;;;;;;;-145.18;100.00;60484.78;5019636;28;20428;-71
2022/04/29 02:14:33;;;;;;;53.80;22.13;;;;;;;-145.18;100.00;60484.78;5026729;28;20432;-71
2022/04/29 02:17:01;;;;;;;45.13;18.63;;;;;;;-145.18;100.00;60484.78;5020628;28;20037;-71
2022/04/29 02:19:28;;;;;;;49.37;21.37;;;;;;;-145.18;100.00;60484.78;5027358;28;20115;-71
2022/04/29 02:21:54;;;;;;;41.03;18.17;;;;;;;-145.18;100.00;60484.78;5025176;28;20022;-70
2022/04/29 02:24:19;;;;;;;37.50;17.00;;;;;;;-145.18;100.00;60484.78;5025808;28;20482;-72
2022/04/29 02:26:45;;;;;;;40.50;17.07;;;;;;;-145.18;100.00;60484.78;5028063;28;20999;-70
2022/04/29 02:29:10;;;;;;;39.53;17.80;;;;;;;-145.18;100.00;60484.78;5025366;28;20029;-70
2022/04/29 02:31:35;;;;;;;42.60;18.73;;;;;;;-145.18;100.00;60484.78;5024903;28;20068;-70
2022/04/29 02:34:01;;;;;;;43.90;19.63;;;;;;;-145.18;100.00;60484.78;5028076;28;20658;-70
2022/04/29 02:36:26;;;;;;;47.67;19.13;;;;;;;-145.18;100.00;60484.78;5024849;28;20036;-70
2022/04/29 02:38:52;;;;;;;45.43;18.23;;;;;;;-145.18;100.00;60484.78;5025535;28;20108;-70
2022/04/29 02:41:17;;;;;;;42.03;18.50;;;;;;;-145.18;100.00;60484.78;5018734;28;20021;-70
2022/04/29 02:43:43;;;;;;;47.77;19.33;;;;;;;-145.18;100.00;60484.78;5025303;28;20029;-70
2022/04/29 02:46:09;;;;;;;58.10;20.43;;;;;;;-145.18;100.00;60484.78;5020865;28;20033;-70
2022/04/29 02:48:34;;;;;;;51.43;20.90;;;;;;;-145.18;100.00;60484.78;5021004;28;20118;-70
2022/04/29 02:50:59;;;;;;;51.03;21.57;;;;;;;-145.18;100.00;60484.78;5024781;28;20021;-70
2022/04/29 02:53:25;;;;;;;55.33;20.73;;;;;;;-145.18;100.00;60484.78;5026639;28;20485;-70
2022/04/29 02:55:51;;;;;;;39.30;17.80;;;;;;;-145.18;100.00;60484.78;5017711;28;20038;-70
2022/04/29 02:58:17;;;;;;;45.23;19.47;;;;;;;-145.18;100.00;60484.78;5005063;28;20132;-70
2022/04/29 03:00:42;;;;;;;50.93;20.33;;;;;;;-145.18;100.00;60484.78;5020387;28;20052;-70
2022/04/29 03:03:08;;;;;;;57.23;21.00;;;;;;;-145.18;100.00;60484.78;5030525;28;20040;-70
2022/04/29 03:05:34;;;;;;;57.60;21.67;;;;;;;-145.18;100.00;60484.78;5030496;28;20512;-70
2022/04/29 03:07:59;;;;;;;68.67;24.50;;;;;;;-145.18;100.00;60484.78;5012788;28;20061;-70
2022/04/29 03:10:25;;;;;;;67.67;24.17;;;;;;;-145.18;100.00;60484.78;5029887;28;20033;-70
2022/04/29 03:12:51;;;;;;;57.67;23.17;;;;;;;-145.18;100.00;60484.78;5029734;28;20029;-70
2022/04/29 03:15:17;;;;;;;63.70;24.30;;;;;;;-145.18;100.00;60484.78;5022542;28;20113;-70
2022/04/29 03:20:29;;;;;;;62.63;23.27;;;;;;;-145.18;100.00;60484.78;5025477;28;20095;-70
2022/04/29 03:22:56;;;;;;;60.90;23.93;;;;;;;-145.18;100.00;60484.78;5031430;28;20460;-70
2022/04/29 03:25:21;;;;;;;65.20;24.47;;;;;;;-145.18;100.00;60484.78;5020036;28;20034;-70
2022/04/29 03:27:46;;;;;;;63.00;24.37;;;;;;;-145.18;100.00;60484.78;5028409;28;20033;-72
2022/04/29 03:30:14;;;;;;;61.93;24.37;;;;;;;-145.18;100.00;60484.78;5026813;28;20030;-71
2022/04/29 03:32:39;;;;;;;55.10;22.83;;;;;;;-145.18;100.00;60484.78;5030366;28;20454;-71
2022/04/29 03:35:05;;;;;;;48.07;21.00;;;;;;;-145.18;100.00;60484.78;5026914;28;20037;-70
2022/04/29 03:37:31;;;;;;;63.90;23.77;;;;;;;-145.18;100.00;60484.78;5017291;28;20474;-70
2022/04/29 03:39:56;;;;;;;61.73;24.73;;;;;;;-145.18;100.00;60484.78;5016974;28;20028;-71
2022/04/29 03:42:22;;;;;;;55.97;23.00;;;;;;;-145.18;100.00;60484.78;5029574;28;20119;-71
2022/04/29 03:44:47;;;;;;;53.77;22.23;;;;;;;-145.18;100.00;60484.78;5020377;28;20535;-70
2022/04/29 03:47:13;;;;;;;49.80;21.47;;;;;;;-145.18;100.00;60484.78;5028929;28;20470;-70
2022/04/29 03:49:38;;;;;;;61.63;24.63;;;;;;;-145.18;100.00;60484.78;5027925;28;20033;-70
2022/04/29 03:52:05;;;;;;;51.30;22.13;;;;;;;-145.18;100.00;60484.78;5028797;28;20122;-70
2022/04/29 03:54:31;;;;;;;49.67;20.27;;;;;;;-145.18;100.00;60484.78;5029177;28;20465;-71
2022/04/29 03:56:57;;;;;;;57.87;21.73;;;;;;;-145.18;100.00;60484.78;5030870;28;20130;-70
2022/04/29 03:59:22;;;;;;;60.57;24.90;;;;;;;-145.18;100.00;60484.78;5028497;28;20033;-70
2022/04/29 04:01:48;;;;;;;58.23;23.17;;;;;;;-145.18;100.00;60484.78;5010634;28;21347;-70
2022/04/29 04:04:13;;;;;;;51.53;23.70;;;;;;;-145.18;100.00;60484.78;5025915;28;20035;-70
2022/04/29 04:06:51;;;;;;;60.80;25.30;;;;;;;-145.18;100.00;60484.78;5029483;28;20026;-70
2022/04/29 04:09:18;;;;;;;65.20;24.47;;;;;;;-145.18;100.00;60484.78;5025880;28;20116;-70
2022/04/29 04:11:44;;;;;;;66.50;25.20;;;;;;;-145.18;100.00;60484.78;5024179;28;20029;-70
2022/04/29 04:14:09;;;;;;;62.97;25.53;;;;;;;-145.18;100.00;60484.78;5028330;28;20039;-71
2022/04/29 04:16:36;;;;;;;57.50;24.87;;;;;;;-145.18;100.00;60484.78;5029037;28;20466;-70
2022/04/29 04:19:02;;;;;;;46.47;20.17;;;;;;;-145.18;100.00;60484.78;5029206;28;20037;-70
2022/04/29 04:21:28;;;;;;;41.97;20.00;;;;;;;-145.18;100.00;60484.78;5027892;28;20041;-70
2022/04/29 04:23:54;;;;;;;50.03;19.93;;;;;;;-145.18;100.00;60484.78;5026910;28;20497;-71
2022/04/29 04:26:20;;;;;;;44.90;20.27;;;;;;;-145.18;100.00;60484.78;5024921;28;20025;-71
2022/04/29 04:28:46;;;;;;;51.70;20.30;;;;;;;-145.18;100.00;60484.78;5020290;28;20471;-70
2022/04/29 04:31:11;;;;;;;40.93;19.70;;;;;;;-145.18;100.00;60484.78;5024635;28;20091;-70
2022/04/29 04:33:37;;;;;;;40.97;19.17;;;;;;;-145.18;100.00;60484.78;5024906;28;20029;-70
2022/04/29 04:36:04;;;;;;;46.33;19.03;;;;;;;-145.18;100.00;60484.78;5029480;28;20029;-71
2022/04/29 04:38:30;;;;;;;48.90;20.03;;;;;;;-145.18;100.00;60484.78;5029700;28;20025;-68
2022/04/29 04:40:56;;;;;;;40.60;19.77;;;;;;;-145.18;100.00;60484.78;5027655;28;20025;-69
2022/04/29 04:43:21;;;;;;;46.13;19.67;;;;;;;-145.18;100.00;60484.78;5025325;28;20050;-68
2022/04/29 04:45:48;;;;;;;43.40;19.83;;;;;;;-145.18;100.00;60484.78;5023037;28;20026;-68
2022/04/29 04:48:13;;;;;;;45.47;19.63;;;;;;;-145.18;100.00;60484.78;5028608;28;20388;-68
2022/04/29 04:50:39;;;;;;;44.73;19.33;;;;;;;-145.18;100.00;60484.78;5021890;28;20033;-68
2022/04/29 04:53:04;;;;;;;43.83;18.37;;;;;;;-145.18;100.00;60484.78;5012370;28;20037;-68
2022/04/29 04:55:29;;;;;;;45.03;20.47;;;;;;;-145.18;100.00;60484.78;5027301;28;20033;-68
2022/04/29 04:57:55;;;;;;;46.50;20.23;;;;;;;-145.18;100.00;60484.78;5028909;28;20091;-68
2022/04/29 05:00:21;;;;;;;38.83;18.17;;;;;;;-145.18;100.00;60484.78;5026692;28;20036;-68
2022/04/29 05:02:46;;;;;;;45.50;19.13;;;;;;;-145.18;100.00;60484.78;5024137;28;20132;-68
2022/04/29 05:05:12;;;;;;;37.87;18.87;;;;;;;-145.18;100.00;60484.78;5024698;28;20069;-70
2022/04/29 05:07:38;;;;;;;42.60;18.97;;;;;;;-145.18;100.00;60484.78;5028570;28;20108;-69
2022/04/29 05:10:09;;;;;;;31.97;17.07;;;;;;;-145.18;100.00;60484.78;5024870;28;20033;-69
2022/04/29 05:12:41;;;;;;;34.17;16.83;;;;;;;-145.18;100.00;60484.78;5023176;28;20021;-69
2022/04/29 05:15:07;;;;;;;33.47;16.53;;;;;;;-145.18;100.00;60484.78;5020201;28;20041;-69
2022/04/29 05:17:33;;;;;;;35.20;15.43;;;;;;;-145.18;100.00;60484.78;5025630;28;20585;-68
2022/04/29 05:19:58;;;;;;;32.07;14.63;;;;;;;-145.18;100.00;60484.78;5025745;28;20064;-68
2022/04/29 05:22:24;;;;;;;34.20;14.03;;;;;;;-145.18;100.00;60484.78;5008108;28;20037;-68
2022/04/29 05:24:49;;;;;;;24.90;13.23;;;;;;;-145.18;100.00;60484.78;5021775;28;20038;-68
2022/04/29 05:27:15;;;;;;;25.33;13.50;;;;;;;-145.18;100.00;60484.78;5019548;28;20533;-68
2022/04/29 05:29:40;;;;;;;29.50;12.40;;;;;;;-145.18;100.00;60484.78;5021694;28;20033;-68
2022/04/29 05:32:07;;;;;;;31.53;11.93;;;;;;;-145.18;100.00;60484.78;5027426;28;20033;-68
2022/04/29 05:34:33;;;;;;;24.73;12.00;;;;;;;-145.18;100.00;60484.78;5019387;28;20022;-68
2022/04/29 05:37:00;;;;;;;24.77;11.30;;;;;;;-145.18;100.00;60484.78;5016322;28;20034;-68
2022/04/29 05:42:17;;;;;;;24.73;10.77;;;;;;;-145.18;100.00;60484.78;5021701;28;20084;-68
2022/04/29 05:44:43;;;;;;;24.87;10.90;;;;;;;-145.18;100.00;60484.78;5023633;28;20469;-68
2022/04/29 05:47:09;;;;;;;34.27;11.77;;;;;;;-145.18;100.00;60484.78;5025830;28;20043;-68
2022/04/29 05:49:34;;;;;;;29.40;10.93;;;;;;;-145.18;100.00;60484.78;5028782;28;20025;-68
2022/04/29 05:52:01;;;;;;;24.40;10.93;;;;;;;-145.18;100.00;60484.78;5029213;28;20061;-68
2022/04/29 05:54:27;;;;;;;23.23;10.43;;;;;;;-145.18;100.00;60484.78;5024840;28;20028;-67
2022/04/29 05:56:52;;;;;;;29.87;10.83;;;;;;;-145.18;100.00;60484.78;5018078;28;20071;-67
2022/04/29 05:59:17;;;;;;;21.43;9.40;;;;;;;-145.18;100.00;60484.78;5027488;28;20569;-67
2022/04/29 06:01:43;;;;;;;28.43;9.27;;;;;;;-145.18;100.00;60484.78;5025415;28;20132;-67
2022/04/29 06:04:08;;;;;;;19.43;8.87;;;;;;;-145.18;100.00;60484.78;5027721;28;20481;-68
2022/04/29 06:06:34;;;;;;;22.40;8.83;;;;;;;-145.18;100.00;60484.78;5027119;28;20013;-67
2022/04/29 06:08:59;;;;;;;36.23;8.67;;;;;;;-145.18;100.00;60484.78;5017994;28;20037;-68
2022/04/29 06:11:25;;;;;;;33.90;8.10;;;;;;;-145.18;100.00;60484.78;5028563;28;20041;-67
2022/04/29 06:13:51;;;;;;;17.83;7.43;;;;;;;-145.18;100.00;60484.78;5029363;28;20028;-67
2022/04/29 06:16:17;;;;;;;18.43;6.60;;;;;;;-145.18;100.00;60484.78;5027100;28;20029;-68
2022/04/29 06:18:43;;;;;;;14.90;5.97;;;;;;;-145.18;100.00;60484.78;5028783;28;20025;-68
2022/04/29 06:21:09;;;;;;;20.80;6.30;;;;;;;-145.18;100.00;60484.78;5027383;28;20025;-68
2022/04/29 06:23:35;;;;;;;13.80;5.70;;;;;;;-145.18;100.00;60484.78;5019906;28;20021;-68
2022/04/29 06:26:00;;;;;;;19.13;5.80;;;;;;;-145.18;100.00;60484.78;5016766;28;20025;-68
2022/04/29 06:28:26;;;;;;;13.93;4.93;;;;;;;-145.18;100.00;60484.78;5027347;28;20036;-68
2022/04/29 06:30:51;;;;;;;15.45;4.80;;;;;;;-145.18;100.00;60484.78;5022475;28;20033;-68
2022/04/29 06:33:17;;;;;;;13.90;4.82;;;;;;;-145.18;100.00;60484.78;5028800;28;20052;-68
2022/04/29 06:35:42;;;;;;;13.93;4.20;;;;;;;-145.18;100.00;60484.78;5026181;28;20025;-68
2022/04/29 06:38:12;;;;;;;9.65;4.50;;;;;;;-145.18;100.00;60484.78;5029968;28;20100;-68
2022/04/29 06:40:37;;;;;;;10.88;4.20;;;;;;;-145.18;100.00;60484.78;5024103;28;20041;-68
2022/04/29 06:43:03;;;;;;;10.00;4.53;;;;;;;-145.18;100.00;60484.78;5014087;28;20120;-68
2022/04/29 06:45:29;;;;;;;13.83;4.93;;;;;;;-145.18;100.00;60484.78;5023917;28;20449;-68
2022/04/29 06:47:54;;;;;;;12.20;4.97;;;;;;;-145.18;100.00;60484.78;5032499;28;20108;-67
2022/04/29 06:50:20;;;;;;;7.60;3.63;;;;;;;-145.18;100.00;60484.78;5029749;28;20113;-68
2022/04/29 06:52:45;;;;;;;13.98;3.92;;;;;;;-145.18;100.00;60484.78;5031900;28;20109;-68
2022/04/29 06:55:10;;;;;;;9.10;3.85;;;;;;;-145.18;100.00;60484.78;5028079;28;20072;-68
2022/04/29 06:57:36;;;;;;;13.65;4.65;;;;;;;-145.18;100.00;60484.78;5015019;28;20034;-68
2022/04/29 07:00:04;;;;;;;15.52;5.10;;;;;;;-145.18;100.00;60484.78;5018281;28;20037;-68
2022/04/29 07:02:29;;;;;;;10.73;4.60;;;;;;;-145.18;100.00;60484.78;5012339;28;20021;-68
2022/04/29 07:04:54;;;;;;;15.75;5.00;;;;;;;-145.18;100.00;60484.78;5018463;28;20037;-68
2022/04/29 07:07:20;;;;;;;15.93;4.47;;;;;;;-145.18;100.00;60484.78;5017419;28;20175;-68
2022/04/29 07:09:46;;;;;;;10.82;4.65;;;;;;;-145.18;100.00;60484.78;5019057;28;20489;-68
2022/04/29 07:12:11;;;;;;;18.85;4.65;;;;;;;-145.18;100.00;60484.78;5030141;28;20033;-68
2022/04/29 07:14:37;;;;;;;11.07;3.58;;;;;;;-145.18;100.00;60484.78;5030833;28;20499;-68
2022/04/29 07:17:03;;;;;;;8.68;3.63;;;;;;;-145.18;100.00;60484.78;5032280;28;20053;-68
2022/04/29 07:19:28;;;;;;;10.70;3.80;;;;;;;-145.18;100.00;60484.78;5028800;28;20037;-68
2022/04/29 07:21:54;;;;;;;10.82;3.83;;;;;;;-145.18;100.00;60484.78;5024744;28;20018;-69
2022/04/29 07:24:19;;;;;;;9.30;3.70;;;;;;;-145.18;100.00;60484.78;5015565;28;20040;-68
2022/04/29 07:26:45;;;;;;;10.63;4.30;;;;;;;-145.18;100.00;60484.78;5015490;28;20014;-68
2022/04/29 07:29:11;;;;;;;8.50;4.40;;;;;;;-145.18;100.00;60484.78;5023727;28;20036;-68
2022/04/29 07:31:36;;;;;;;13.63;4.72;;;;;;;-145.18;100.00;60484.78;5018579;28;20401;-68
2022/04/29 07:34:02;;;;;;;11.13;4.63;;;;;;;-145.18;100.00;60484.78;5012805;28;20026;-68
2022/04/29 07:41:56;;;;;;;11.20;4.20;;;;;;;-145.18;100.00;60484.78;5013389;28;20053;-69
2022/04/29 07:44:21;;;;;;;15.88;4.70;;;;;;;-145.18;100.00;60484.78;5014633;28;20038;-69
2022/04/29 07:46:49;;;;;;;10.55;4.50;;;;;;;-145.18;100.00;60484.78;5031339;28;20030;-69
2022/04/29 07:49:14;;;;;;;13.87;4.70;;;;;;;-145.18;100.00;60484.78;5029636;28;20033;-69
2022/04/29 07:51:40;;;;;;;14.50;4.93;;;;;;;-145.18;100.00;60484.78;5030540;28;20036;-69
2022/04/29 07:54:07;;;;;;;12.10;4.33;;;;;;;-145.18;100.00;60484.78;5030996;28;20093;-69
2022/04/29 07:56:33;;;;;;;14.00;4.43;;;;;;;-145.18;100.00;60484.78;5016836;28;20437;-69
2022/04/29 07:58:58;;;;;;;10.83;4.67;;;;;;;-145.18;100.00;60484.78;5027018;28;20642;-69
2022/04/29 08:01:25;;;;;;;11.93;4.07;;;;;;;-145.18;100.00;60484.78;5029679;28;20064;-69
2022/04/29 08:03:51;;;;;;;7.93;4.07;;;;;;;-145.18;100.00;60484.78;5022139;28;20086;-69
2022/04/29 08:06:17;;;;;;;10.67;4.23;;;;;;;-145.18;100.00;60484.78;5028745;28;20025;-69
2022/04/29 08:08:42;;;;;;;14.53;5.00;;;;;;;-145.18;100.00;60484.78;5031078;28;20086;-69
2022/04/29 08:11:08;;;;;;;12.83;5.00;;;;;;;-145.18;100.00;60484.78;5022449;28;20136;-69
2022/04/29 08:13:36;;;;;;;19.50;5.63;;;;;;;-145.18;100.00;60484.78;5012420;28;20441;-69
2022/04/29 08:16:02;;;;;;;13.80;4.50;;;;;;;-145.18;100.00;60484.78;5027079;28;20602;-69
2022/04/29 08:18:28;;;;;;;12.90;4.63;;;;;;;-145.18;100.00;60484.78;5029715;28;20029;-69
2022/04/29 08:20:53;;;;;;;12.73;5.17;;;;;;;-145.18;100.00;60484.78;5028377;28;20251;-69
2022/04/29 08:23:19;;;;;;;11.37;4.60;;;;;;;-145.18;100.00;60484.78;5013460;28;20040;-69
2022/04/29 08:25:45;;;;;;;12.03;3.93;;;;;;;-145.18;100.00;60484.78;5024767;28;20025;-68
2022/04/29 08:28:11;;;;;;;11.97;3.90;;;;;;;-145.18;100.00;60484.78;5016000;28;20051;-69
2022/04/29 08:30:36;;;;;;;13.02;3.85;;;;;;;-145.18;100.00;60484.78;5023472;28;20032;-68
2022/04/29 08:33:02;;;;;;;6.53;3.08;;;;;;;-145.18;100.00;60484.78;5022588;28;20026;-68
2022/04/29 08:35:28;;;;;;;9.25;3.30;;;;;;;-145.18;100.00;60484.78;5020382;28;20029;-69
2022/04/29 08:37:54;;;;;;;8.75;3.50;;;;;;;-145.18;100.00;60484.78;5030310;28;20155;-69
2022/04/29 08:40:20;;;;;;;12.57;3.53;;;;;;;-145.18;100.00;60484.78;5022211;28;20124;-69
2022/04/29 08:42:46;;;;;;;10.63;3.95;;;;;;;-145.18;100.00;60484.78;5030736;28;20520;-69
2022/04/29 08:45:16;;;;;;;9.48;3.60;;;;;;;-145.18;100.00;60484.78;5029563;28;20026;-68
2022/04/29 08:47:44;;;;;;;13.40;3.10;;;;;;;-145.18;100.00;60484.78;5030579;28;20469;-68
2022/04/29 08:50:15;;;;;;;15.38;3.10;;;;;;;-145.18;100.00;60484.78;5022759;28;20108;-68
2022/04/29 08:52:41;;;;;;;8.60;3.00;;;;;;;-145.18;100.00;60484.78;5030185;28;20022;-69
2022/04/29 09:00:41;;;;;;;6.10;2.55;;;;;;;-145.18;100.00;60484.78;5026822;28;20119;-69
2022/04/29 09:03:15;;;;;;;6.75;2.50;;;;;;;-145.18;100.00;60484.78;5026833;28;20021;-69
2022/04/29 09:05:41;;;;;;;8.82;2.70;;;;;;;-145.18;100.00;60484.78;5027906;28;20067;-69
2022/04/29 09:08:10;;;;;;;9.57;2.75;;;;;;;-145.18;100.00;60484.78;5030189;28;20108;-69
2022/04/29 09:10:38;;;;;;;7.22;2.80;;;;;;;-145.18;100.00;60484.78;5026838;28;20030;-69
2022/04/29 09:13:09;;;;;;;7.90;2.80;;;;;;;-145.18;100.00;60484.78;5013927;28;20044;-69
2022/04/29 09:15:36;;;;;;;5.93;2.50;;;;;;;-145.18;100.00;60484.78;5022855;28;20366;-69
2022/04/29 09:18:02;;;;;;;7.78;2.65;;;;;;;-145.18;100.00;60484.78;5029889;28;20068;-69
2022/04/29 09:20:28;;;;;;;6.90;2.80;;;;;;;-145.18;100.00;60484.78;5027971;28;20109;-69
2022/04/29 09:22:53;;;;;;;12.20;2.90;;;;;;;-145.18;100.00;60484.78;5029764;28;20024;-68
2022/04/29 09:25:19;;;;;;;8.02;2.60;;;;;;;-145.18;100.00;60484.78;5025673;28;20079;-69
2022/04/29 09:27:55;;;;;;;7.53;2.45;;;;;;;-145.18;100.00;60484.78;5028424;28;20087;-69
2022/04/29 09:30:40;;;;;;;7.72;2.38;;;;;;;-145.18;100.00;60484.78;5028759;28;20481;-69
2022/04/29 09:33:23;;;;;;;8.23;3.20;;;;;;;-145.18;100.00;60484.78;5019874;28;20503;-69
2022/04/29 09:35:49;;;;;;;9.32;3.22;;;;;;;-145.18;100.00;60484.78;5022872;28;20415;-69
2022/04/29 09:41:00;;;;;;;9.68;3.20;;;;;;;-145.18;100.00;60484.78;5023810;28;20031;-69
2022/04/29 09:43:44;;;;;;;8.35;2.97;;;;;;;-145.18;100.00;60484.78;5014701;28;20103;-69
2022/04/29 09:46:24;;;;;;;11.90;3.50;;;;;;;-145.18;100.00;60484.78;5010624;28;20371;-69
2022/04/29 09:49:02;;;;;;;12.20;3.30;;;;;;;-145.18;100.00;60484.78;5015326;28;20081;-69
2022/04/29 09:51:47;;;;;;;17.23;3.08;;;;;;;-145.18;100.00;60484.78;5012284;28;20485;-68
2022/04/29 09:54:29;;;;;;;11.82;3.13;;;;;;;-145.18;100.00;60484.78;5027862;28;20386;-69
2022/04/29 09:57:01;;;;;;;12.02;3.00;;;;;;;-145.18;100.00;60484.78;5026279;28;20121;-69
2022/04/29 09:59:30;;;;;;;7.15;2.60;;;;;;;-145.18;100.00;60484.78;5021354;28;20819;-69
2022/04/29 10:01:56;;;;;;;13.50;3.00;;;;;;;-145.18;100.00;60484.78;5025651;28;20025;-69
2022/04/29 10:04:22;;;;;;;7.68;2.80;;;;;;;-145.18;100.00;60484.78;5010062;28;20029;-69
2022/04/29 10:06:49;;;;;;;7.90;2.90;;;;;;;-145.18;100.00;60484.78;5028963;28;20543;-69
2022/04/29 10:09:17;;;;;;;8.43;3.10;;;;;;;-145.18;100.00;60484.78;5007614;28;20026;-68
2022/04/29 10:11:44;;;;;;;6.43;3.03;;;;;;;-145.18;100.00;60484.78;5024872;28;20405;-68
2022/04/29 10:14:14;;;;;;;9.30;3.25;;;;;;;-145.18;100.00;60484.78;5021044;28;20028;-69
2022/04/29 10:16:44;;;;;;;6.78;2.95;;;;;;;-145.18;100.00;60484.78;5020482;28;20040;-68
2022/04/29 10:22:03;;;;;;;6.70;2.70;;;;;;;-145.18;100.00;60484.78;5031985;28;20420;-67
2022/04/29 10:24:29;;;;;;;;;;;;;;;-145.18;100.00;60484.78;5031385;28;20136;-68
2022/04/29 10:26:55;;;;;;;7.32;2.63;;;;;;;-145.18;100.00;60484.78;5029666;28;20285;-68
2022/04/29 10:29:21;;;;;;;10.40;3.65;;;;;;;-145.18;100.00;60484.78;5030254;28;20041;-68
2022/04/29 10:32:06;;;;;;;6.25;2.92;;;;;;;-145.18;100.00;60484.78;5031860;28;20428;-68
2022/04/29 10:34:31;;;;;;;8.30;3.00;;;;;;;-145.18;100.00;60484.78;5021305;28;20033;-68
2022/04/29 10:37:00;;;;;;;6.38;2.60;;;;;;;-145.18;100.00;60484.78;5027402;28;20554;-68
2022/04/29 10:39:25;;;;;;;7.82;2.42;;;;;;;-145.18;100.00;60484.78;5014960;28;20018;-68
2022/04/29 10:42:02;;;;;;;6.82;2.72;;;;;;;-145.18;100.00;60484.78;5032908;28;20485;-68
2022/04/29 10:44:29;;;;;;;6.55;2.53;;;;;;;-145.18;100.00;60484.78;5029080;28;20025;-68
2022/04/29 10:46:54;;;;;;;6.75;2.58;;;;;;;-145.18;100.00;60484.78;5022144;28;20037;-68
2022/04/29 10:49:20;;;;;;;12.40;3.08;;;;;;;-145.18;100.00;60484.78;5015423;28;20033;-68
2022/04/29 10:51:47;;;;;;;9.93;2.80;;;;;;;-145.18;100.00;60484.78;5032217;28;20112;-68
2022/04/29 10:54:12;;;;;;;8.40;2.80;;;;;;;-145.18;100.00;60484.78;5030658;28;20041;-68
2022/04/29 10:56:38;;;;;;;7.47;3.03;;;;;;;-145.18;100.00;60484.78;5018268;28;20037;-68
2022/04/29 10:59:04;;;;;;;10.27;2.92;;;;;;;-145.18;100.00;60484.78;5020518;28;20045;-68
2022/04/29 11:01:34;;;;;;;10.43;3.08;;;;;;;-145.18;100.00;60484.78;5029156;28;20493;-68
2022/04/29 11:04:07;;;;;;;6.70;3.10;;;;;;;-145.18;100.00;60484.78;5031172;28;20022;-68
2022/04/29 11:06:37;;;;;;;6.65;3.17;;;;;;;-145.18;100.00;60484.78;5013860;28;20053;-68
2022/04/29 11:09:23;;;;;;;12.10;3.65;;;;;;;-145.18;100.00;60484.78;5021506;28;20045;-68
2022/04/29 11:11:48;;;;;;;7.78;3.35;;;;;;;-145.18;100.00;60484.78;5028035;28;20037;-68
2022/04/29 11:14:14;;;;;;;14.20;3.47;;;;;;;-145.18;100.00;60484.78;5030401;28;20528;-68
2022/04/29 11:16:55;;;;;;;9.18;3.70;;;;;;;-145.18;100.00;60484.78;5030626;28;20029;-68
2022/04/29 11:19:33;;;;;;;9.97;3.60;;;;;;;-145.18;100.00;60484.78;5031435;28;20053;-68
2022/04/29 11:24:46;;;;;;;10.55;3.72;;;;;;;-145.18;100.00;60484.78;5029328;28;20069;-68